createdAt,value
2022-12-13T00:02:09.208Z,15.73
2022-12-13T00:04:40.156Z,17.03
2022-12-13T00:07:07.474Z,17.03
2022-12-13T00:09:41.113Z,19.43
2022-12-13T00:12:14.856Z,16.10
2022-12-13T00:14:48.152Z,16.30
2022-12-13T00:17:15.140Z,15.63
2022-12-13T00:19:42.226Z,15.90
2022-12-13T00:22:16.134Z,14.63
2022-12-13T00:24:46.097Z,20.07
2022-12-13T00:27:13.277Z,16.47
2022-12-13T00:29:47.167Z,19.83
2022-12-13T00:32:14.182Z,17.43
2022-12-13T00:34:41.460Z,19.03
2022-12-13T00:37:15.164Z,20.27
2022-12-13T00:39:42.187Z,19.30
2022-12-13T00:42:09.203Z,17.37
2022-12-13T00:44:43.169Z,19.37
2022-12-13T00:47:10.150Z,16.23
2022-12-13T00:49:37.394Z,19.87
2022-12-13T00:52:11.141Z,17.83
2022-12-13T00:54:38.103Z,24.87
2022-12-13T00:57:05.358Z,22.03
2022-12-13T00:59:39.099Z,19.40
2022-12-13T01:02:06.048Z,19.63
2022-12-13T01:04:33.311Z,19.93
2022-12-13T01:07:07.137Z,21.10
2022-12-13T01:09:34.282Z,23.80
2022-12-13T01:12:20.148Z,23.37
2022-12-13T01:14:56.217Z,24.27
2022-12-13T01:17:30.143Z,23.23
2022-12-13T01:19:57.251Z,27.03
2022-12-13T01:22:24.216Z,27.70
2022-12-13T01:24:58.127Z,29.17
2022-12-13T01:27:25.076Z,24.77
2022-12-13T01:29:53.252Z,24.03
2022-12-13T01:32:27.141Z,26.00
2022-12-13T01:34:54.087Z,26.50
2022-12-13T01:37:21.112Z,23.40
2022-12-13T01:40:00.115Z,27.00
2022-12-13T01:42:27.050Z,24.07
2022-12-13T01:44:59.336Z,28.07
2022-12-13T01:47:55.169Z,26.13
2022-12-13T01:50:38.261Z,24.80
2022-12-13T01:53:15.121Z,24.93
2022-12-13T01:55:46.875Z,18.17
2022-12-13T01:58:15.034Z,23.73
2022-12-13T02:00:50.134Z,21.60
2022-12-13T02:03:21.885Z,24.60
2022-12-13T02:06:23.148Z,23.80
2022-12-13T02:08:50.640Z,22.47
2022-12-13T02:11:31.123Z,29.30
2022-12-13T02:14:05.779Z,27.23
2022-12-13T02:17:00.165Z,22.13
2022-12-13T02:19:54.226Z,26.93
2022-12-13T02:23:03.153Z,26.53
2022-12-13T02:26:18.625Z,24.03
2022-12-13T02:29:30.641Z,34.50
2022-12-13T02:32:15.908Z,26.30
2022-12-13T02:35:05.167Z,28.90
2022-12-13T02:38:17.681Z,27.07
2022-12-13T02:41:11.218Z,27.87
2022-12-13T02:43:54.127Z,29.87
2022-12-13T02:46:42.266Z,24.63
2022-12-13T02:49:11.773Z,27.23
2022-12-13T02:51:39.776Z,27.63
2022-12-13T02:54:13.173Z,25.27
2022-12-13T02:56:40.214Z,27.90
2022-12-13T02:59:22.197Z,23.30
2022-12-13T03:02:21.752Z,24.37
2022-12-13T03:05:30.179Z,21.63
2022-12-13T03:08:31.661Z,22.57
2022-12-13T03:11:21.182Z,23.07
2022-12-13T03:14:07.474Z,26.77
2022-12-13T03:16:59.185Z,29.33
2022-12-13T03:19:26.754Z,25.00
2022-12-13T03:21:53.850Z,25.80
2022-12-13T03:24:28.149Z,23.97
2022-12-13T03:26:55.857Z,23.57
2022-12-13T03:29:23.766Z,25.03
2022-12-13T03:32:00.178Z,25.17
2022-12-13T03:34:27.179Z,34.47
2022-12-13T03:37:19.208Z,26.17
2022-12-13T03:39:46.165Z,21.60
2022-12-13T03:42:13.110Z,24.03
2022-12-13T03:44:46.145Z,26.73
2022-12-13T03:47:13.127Z,24.07
2022-12-13T03:49:40.188Z,24.73
2022-12-13T03:52:14.153Z,26.73
2022-12-13T03:54:41.112Z,29.70
2022-12-13T03:57:12.294Z,29.00
2022-12-13T03:59:46.165Z,30.97
2022-12-13T04:02:13.447Z,26.03
2022-12-13T04:05:04.184Z,23.43
2022-12-13T04:07:34.379Z,26.17
2022-12-13T04:10:02.679Z,28.23
2022-12-13T04:12:54.198Z,28.13
2022-12-13T04:15:27.482Z,29.40
2022-12-13T04:18:01.193Z,22.97
2022-12-13T04:20:28.221Z,28.00
2022-12-13T04:22:55.246Z,23.67
2022-12-13T04:25:29.137Z,24.23
2022-12-13T04:27:56.066Z,29.97
2022-12-13T04:30:23.058Z,28.27
2022-12-13T04:32:56.181Z,26.67
2022-12-13T04:35:23.198Z,27.17
2022-12-13T04:37:50.175Z,27.60
2022-12-13T04:40:24.128Z,29.90
2022-12-13T04:42:54.019Z,27.13
2022-12-13T04:45:22.933Z,30.00
2022-12-13T04:47:57.131Z,24.20
2022-12-13T04:50:24.263Z,23.50
2022-12-13T04:52:51.190Z,28.93
2022-12-13T04:55:25.154Z,24.40
2022-12-13T04:57:52.243Z,27.50
2022-12-13T05:00:21.233Z,32.10
2022-12-13T05:02:55.206Z,26.97
2022-12-13T05:05:22.549Z,27.23
2022-12-13T05:07:49.577Z,22.97
2022-12-13T05:10:33.789Z,23.67
2022-12-13T05:13:09.257Z,27.73
2022-12-13T05:15:43.197Z,24.43
2022-12-13T05:18:11.110Z,28.33
2022-12-13T05:20:39.920Z,25.83
2022-12-13T05:23:14.215Z,29.47
2022-12-13T05:25:50.071Z,31.07
2022-12-13T05:28:28.307Z,28.50
2022-12-13T05:31:22.293Z,22.20
2022-12-13T05:34:01.354Z,25.83
2022-12-13T05:36:30.372Z,20.80
2022-12-13T05:39:04.150Z,25.20
2022-12-13T05:41:36.401Z,25.47
2022-12-13T05:44:03.476Z,24.03
2022-12-13T05:46:41.504Z,24.03
2022-12-13T05:49:08.721Z,28.40
2022-12-13T05:51:35.773Z,26.70
2022-12-13T05:54:09.139Z,27.47
2022-12-13T05:56:36.687Z,27.27
2022-12-13T05:59:03.813Z,23.70
2022-12-13T06:01:37.156Z,24.47
2022-12-13T06:04:12.034Z,25.83
2022-12-13T06:06:46.174Z,28.80
2022-12-13T06:09:18.400Z,24.47
2022-12-13T06:12:01.445Z,25.40
2022-12-13T06:14:28.920Z,27.13
2022-12-13T06:16:56.050Z,26.90
2022-12-13T06:19:30.226Z,26.23
2022-12-13T06:21:57.242Z,26.00
2022-12-13T06:24:25.081Z,24.67
2022-12-13T06:27:00.179Z,48.17
2022-12-13T06:29:27.457Z,26.13
2022-12-13T06:32:08.326Z,26.03
2022-12-13T06:34:36.930Z,29.10
2022-12-13T06:37:15.245Z,27.33
2022-12-13T06:39:42.571Z,39.73
2022-12-13T06:42:24.333Z,25.60
2022-12-13T06:44:55.767Z,20.93
2022-12-13T06:47:34.349Z,25.37
2022-12-13T06:50:05.287Z,34.40
2022-12-13T06:52:33.888Z,29.80
2022-12-13T06:55:07.221Z,23.40
2022-12-13T06:57:34.646Z,26.60
2022-12-13T07:00:03.676Z,27.17
2022-12-13T07:02:40.331Z,23.33
2022-12-13T07:05:09.443Z,27.63
2022-12-13T07:07:36.708Z,23.80
2022-12-13T07:10:22.786Z,20.57
2022-12-13T07:12:57.385Z,41.67
2022-12-13T07:15:41.282Z,24.97
2022-12-13T07:18:08.509Z,30.50
2022-12-13T07:20:35.763Z,26.40
2022-12-13T07:23:09.260Z,30.07
2022-12-13T07:25:37.356Z,25.33
2022-12-13T07:28:08.079Z,37.90
2022-12-13T07:30:46.551Z,25.07
2022-12-13T07:33:22.234Z,24.67
2022-12-13T07:35:56.430Z,23.50
2022-12-13T07:38:23.698Z,24.43
2022-12-13T07:40:50.851Z,28.30
2022-12-13T07:43:24.291Z,25.50
2022-12-13T07:45:53.258Z,21.63
2022-12-13T07:48:20.705Z,25.07
2022-12-13T07:50:54.891Z,27.50
2022-12-13T07:53:22.481Z,25.73
2022-12-13T07:55:49.791Z,28.90
2022-12-13T07:58:23.245Z,28.00
2022-12-13T08:00:50.607Z,27.43
2022-12-13T08:03:24.976Z,29.17
2022-12-13T08:06:07.341Z,26.73
2022-12-13T08:08:35.286Z,26.13
2022-12-13T08:11:19.238Z,26.07
2022-12-13T08:13:55.110Z,25.83
2022-12-13T08:16:30.010Z,28.13
2022-12-13T08:19:01.217Z,25.13
2022-12-13T08:21:55.232Z,26.00
2022-12-13T08:24:25.329Z,24.93
2022-12-13T08:27:00.229Z,24.47
2022-12-13T08:29:33.406Z,23.50
2022-12-13T08:32:16.284Z,23.80
2022-12-13T08:34:44.155Z,24.90
2022-12-13T08:37:12.120Z,26.37
2022-12-13T08:39:47.295Z,26.90
2022-12-13T08:42:20.067Z,26.70
2022-12-13T08:44:57.225Z,26.13
2022-12-13T08:47:27.123Z,32.40
2022-12-13T08:50:06.263Z,28.10
2022-12-13T08:52:40.735Z,24.70
2022-12-13T08:55:31.899Z,26.53
2022-12-13T08:58:03.770Z,26.07
2022-12-13T09:00:38.341Z,26.83
2022-12-13T09:03:10.099Z,24.90
2022-12-13T09:05:46.442Z,32.00
2022-12-13T09:08:23.951Z,26.70
2022-12-13T09:11:20.844Z,22.43
2022-12-13T09:14:01.602Z,26.90
2022-12-13T09:16:37.356Z,23.67
2022-12-13T09:19:25.258Z,29.20
2022-12-13T09:22:02.518Z,24.40
2022-12-13T09:24:35.726Z,25.67
2022-12-13T09:27:28.077Z,25.57
2022-12-13T09:29:56.246Z,23.27
2022-12-13T09:32:32.311Z,27.93
2022-12-13T09:34:59.564Z,27.20
2022-12-13T09:37:27.659Z,24.37
2022-12-13T09:40:16.392Z,24.33
2022-12-13T09:43:11.982Z,23.70
2022-12-13T09:45:54.414Z,22.47
2022-12-13T09:48:34.591Z,22.90
2022-12-13T09:51:17.318Z,20.40
2022-12-13T09:53:56.109Z,20.30
2022-12-13T09:56:33.353Z,20.13
2022-12-13T09:59:00.671Z,23.17
2022-12-13T10:01:28.112Z,18.63
2022-12-13T10:04:08.243Z,18.67
2022-12-13T10:06:38.906Z,18.40
2022-12-13T10:09:17.248Z,16.00
2022-12-13T10:12:00.399Z,17.67
2022-12-13T10:14:47.262Z,19.63
2022-12-13T10:17:22.095Z,19.53
2022-12-13T10:19:59.234Z,17.90
2022-12-13T10:22:26.889Z,17.20
2022-12-13T10:25:10.258Z,20.23
2022-12-13T10:27:47.593Z,17.03
2022-12-13T10:30:32.255Z,16.90
2022-12-13T10:33:05.356Z,17.17
2022-12-13T10:35:44.389Z,17.47
2022-12-13T10:38:31.883Z,16.87
2022-12-13T10:41:06.443Z,20.80
2022-12-13T10:43:35.315Z,12.70
2022-12-13T10:46:05.496Z,16.13
2022-12-13T10:48:55.303Z,18.43
2022-12-13T10:51:23.307Z,10.33
2022-12-13T10:54:07.255Z,14.53
2022-12-13T10:56:50.337Z,15.33
2022-12-13T10:59:44.303Z,13.60
2022-12-13T11:02:38.918Z,14.77
2022-12-13T11:05:39.332Z,13.40
2022-12-13T11:08:28.864Z,14.40
2022-12-13T11:11:12.317Z,14.67
2022-12-13T11:14:12.294Z,15.57
2022-12-13T11:16:48.501Z,13.37
2022-12-13T11:19:25.393Z,19.57
2022-12-13T11:22:02.372Z,13.53
2022-12-13T11:24:36.541Z,13.83
2022-12-13T11:27:43.319Z,13.20
2022-12-13T11:30:23.346Z,13.97
2022-12-13T11:33:29.485Z,13.57
2022-12-13T11:36:44.706Z,13.20
2022-12-13T11:40:01.485Z,15.33
2022-12-13T11:42:53.759Z,14.93
2022-12-13T11:45:45.388Z,12.37
2022-12-13T11:48:41.385Z,12.20
2022-12-13T11:51:19.352Z,11.23
2022-12-13T11:54:00.118Z,14.20
2022-12-13T11:56:42.373Z,13.60
2022-12-13T11:59:39.753Z,15.47
2022-12-13T12:02:52.307Z,13.00
2022-12-13T12:05:38.387Z,14.97
2022-12-13T12:08:31.583Z,15.33
2022-12-13T12:11:45.307Z,17.13
2022-12-13T12:14:49.301Z,13.27
2022-12-13T12:17:24.953Z,12.23
2022-12-13T12:20:06.549Z,11.73
2022-12-13T12:22:51.261Z,11.40
2022-12-13T12:26:08.378Z,14.93
2022-12-13T12:29:21.307Z,14.47
2022-12-13T12:32:41.492Z,15.50
2022-12-13T12:35:23.345Z,11.83
2022-12-13T12:38:44.375Z,11.90
2022-12-13T12:41:56.263Z,11.67
2022-12-13T12:44:56.306Z,10.47
2022-12-13T12:51:33.296Z,11.67
2022-12-13T12:54:33.818Z,13.07
2022-12-13T12:57:38.473Z,10.53
2022-12-13T13:00:13.617Z,14.00
2022-12-13T13:03:10.061Z,12.60
2022-12-13T13:06:06.765Z,17.30
2022-12-13T13:09:24.396Z,13.57
2022-12-13T13:11:59.375Z,16.57
2022-12-13T13:14:50.609Z,18.03
2022-12-13T13:17:18.192Z,11.10
2022-12-13T13:19:48.188Z,14.57
2022-12-13T13:22:53.769Z,14.73
2022-12-13T13:25:35.197Z,14.40
2022-12-13T13:28:26.367Z,13.10
2022-12-13T13:31:09.421Z,12.97
2022-12-13T13:33:58.385Z,15.63
2022-12-13T13:36:41.382Z,15.23
2022-12-13T13:39:45.303Z,14.53
2022-12-13T13:42:25.870Z,13.10
2022-12-13T13:45:30.388Z,20.50
2022-12-13T13:48:40.844Z,13.27
2022-12-13T13:52:24.499Z,12.27
2022-12-13T13:55:33.272Z,17.93
2022-12-13T13:59:03.291Z,14.23
2022-12-13T14:02:01.365Z,15.03
2022-12-13T14:05:22.340Z,15.07
2022-12-13T14:08:47.740Z,14.90
2022-12-13T14:11:32.313Z,15.50
2022-12-13T14:14:22.658Z,14.40
2022-12-13T14:16:59.306Z,14.50
2022-12-13T14:20:03.968Z,16.57
2022-12-13T14:23:02.285Z,22.00
2022-12-13T14:25:50.907Z,23.20
2022-12-13T14:28:57.279Z,19.70
2022-12-13T14:31:55.396Z,22.77
2022-12-13T14:34:36.211Z,16.43
2022-12-13T14:37:18.819Z,21.27
2022-12-13T14:39:52.237Z,20.83
2022-12-13T14:42:35.873Z,23.97
2022-12-13T14:45:41.280Z,31.37
2022-12-13T14:48:16.215Z,20.30
2022-12-13T14:51:03.216Z,20.53
2022-12-13T14:53:41.287Z,21.60
2022-12-13T14:56:27.804Z,24.77
2022-12-13T14:59:15.947Z,21.03
2022-12-13T15:01:51.287Z,23.77
2022-12-13T15:04:21.648Z,18.00
2022-12-13T15:07:30.280Z,38.17
2022-12-13T15:10:17.838Z,39.60
2022-12-13T15:13:02.391Z,26.60
2022-12-13T15:15:35.482Z,69.03
2022-12-13T15:18:16.266Z,25.00
2022-12-13T15:21:00.711Z,22.10
2022-12-13T15:23:49.676Z,41.33
2022-12-13T15:26:28.378Z,59.73
2022-12-13T15:29:14.250Z,26.83
2022-12-13T15:31:41.410Z,27.27
2022-12-13T15:34:43.571Z,26.33
2022-12-13T15:37:29.221Z,19.53
2022-12-13T15:40:14.208Z,17.30
2022-12-13T15:42:49.541Z,19.07
2022-12-13T15:45:37.361Z,23.37
2022-12-13T15:48:05.635Z,40.23
2022-12-13T15:50:49.158Z,39.53
2022-12-13T15:54:23.894Z,46.20
2022-12-13T15:57:28.237Z,33.40
2022-12-13T16:00:17.140Z,29.43
2022-12-13T16:03:25.934Z,29.07
2022-12-13T16:05:56.869Z,31.20
2022-12-13T16:08:44.271Z,31.40
2022-12-13T16:11:13.091Z,27.27
2022-12-13T16:13:58.362Z,33.33
2022-12-13T16:16:36.319Z,27.23
2022-12-13T16:19:22.225Z,33.57
2022-12-13T16:21:52.302Z,27.60
2022-12-13T16:24:19.306Z,25.23
2022-12-13T16:26:55.327Z,22.00
2022-12-13T16:29:22.346Z,25.67
2022-12-13T16:31:49.733Z,23.90
2022-12-13T16:34:26.497Z,25.93
2022-12-13T16:36:53.625Z,20.63
2022-12-13T16:39:20.757Z,26.90
2022-12-13T16:41:54.251Z,25.10
2022-12-13T16:44:41.191Z,22.67
2022-12-13T16:47:24.717Z,21.70
2022-12-13T16:50:09.915Z,21.27
2022-12-13T16:52:46.258Z,21.70
2022-12-13T16:55:13.209Z,21.57
2022-12-13T16:57:40.546Z,18.47
2022-12-13T17:00:17.244Z,19.57
2022-12-13T17:02:44.232Z,18.17
2022-12-13T17:05:11.247Z,23.17
2022-12-13T17:07:44.290Z,19.50
2022-12-13T17:10:11.544Z,21.63
2022-12-13T17:12:59.269Z,20.47
2022-12-13T17:15:26.242Z,22.13
2022-12-13T17:17:55.247Z,23.40
2022-12-13T17:20:29.445Z,26.20
2022-12-13T17:22:56.626Z,20.23
2022-12-13T17:25:23.662Z,22.27
2022-12-13T17:27:57.320Z,25.80
2022-12-13T17:30:24.399Z,25.27
2022-12-13T17:32:51.443Z,26.70
2022-12-13T17:35:26.273Z,27.00
2022-12-13T17:37:54.928Z,22.90
2022-12-13T17:40:22.068Z,23.50
2022-12-13T17:42:57.338Z,25.73
2022-12-13T17:45:24.379Z,21.03
2022-12-13T17:47:51.400Z,21.70
2022-12-13T17:50:25.268Z,21.43
2022-12-13T17:52:52.323Z,25.83
2022-12-13T17:55:19.311Z,20.80
2022-12-13T17:57:53.928Z,23.07
2022-12-13T18:00:21.250Z,21.87
2022-12-13T18:02:55.599Z,21.03
2022-12-13T18:05:32.381Z,29.63
2022-12-13T18:07:59.431Z,20.77
2022-12-13T18:10:30.088Z,20.57
2022-12-13T18:13:07.814Z,28.67
2022-12-13T18:15:41.015Z,17.23
2022-12-13T18:18:15.310Z,20.37
2022-12-13T18:20:42.360Z,21.20
2022-12-13T18:23:09.500Z,23.20
2022-12-13T18:25:43.358Z,17.37
2022-12-13T18:28:10.642Z,18.77
2022-12-13T18:30:38.796Z,18.03
2022-12-13T18:33:12.289Z,20.60
2022-12-13T18:35:39.244Z,19.50
2022-12-13T18:38:06.254Z,19.87
2022-12-13T18:40:40.310Z,19.63
2022-12-13T18:43:07.363Z,20.73
2022-12-13T18:45:34.560Z,21.60
2022-12-13T18:48:08.329Z,30.97
2022-12-13T18:50:35.790Z,25.40
2022-12-13T18:53:02.862Z,23.70
2022-12-13T18:55:37.274Z,19.63
2022-12-13T18:58:04.775Z,25.40
2022-12-13T19:00:31.779Z,24.87
2022-12-13T19:03:05.415Z,26.27
2022-12-13T19:05:32.461Z,23.87
2022-12-13T19:07:59.592Z,20.77
2022-12-13T19:10:33.301Z,20.13
2022-12-13T19:13:06.384Z,22.63
2022-12-13T19:15:40.343Z,18.77
2022-12-13T19:18:07.756Z,20.13
2022-12-13T19:20:34.931Z,21.53
2022-12-13T19:23:08.268Z,16.60
2022-12-13T19:25:35.209Z,16.73
2022-12-13T19:28:02.179Z,15.27
2022-12-13T19:30:35.309Z,20.67
2022-12-13T19:33:02.264Z,15.13
2022-12-13T19:35:29.318Z,13.63
2022-12-13T19:38:04.266Z,14.43
2022-12-13T19:40:31.303Z,16.73
2022-12-13T19:42:58.374Z,19.13
2022-12-13T19:45:32.418Z,16.97
2022-12-13T19:47:59.632Z,14.10
2022-12-13T19:50:28.565Z,16.63
2022-12-13T19:53:02.377Z,13.60
2022-12-13T19:55:29.594Z,15.97
2022-12-13T19:57:57.881Z,14.87
2022-12-13T20:00:32.338Z,16.10
2022-12-13T20:02:59.681Z,15.77
2022-12-13T20:05:27.158Z,18.70
2022-12-13T20:08:05.370Z,17.23
2022-12-13T20:10:38.172Z,14.87
2022-12-13T20:13:18.363Z,18.50
2022-12-13T20:15:48.584Z,15.03
2022-12-13T20:18:15.639Z,14.23
2022-12-13T20:21:10.626Z,16.00
2022-12-13T20:23:37.622Z,14.63
2022-12-13T20:26:16.307Z,19.30
2022-12-13T20:28:43.420Z,21.17
2022-12-13T20:31:15.185Z,21.67
2022-12-13T20:33:49.331Z,14.07
2022-12-13T20:36:24.810Z,19.27
2022-12-13T20:39:05.292Z,19.17
2022-12-13T20:41:34.950Z,16.53
2022-12-13T20:44:12.438Z,21.43
2022-12-13T20:46:40.233Z,17.93
2022-12-13T20:49:09.939Z,17.30
2022-12-13T20:51:46.267Z,19.20
2022-12-13T20:54:13.246Z,18.40
2022-12-13T20:56:40.474Z,19.97
2022-12-13T20:59:18.279Z,23.17
2022-12-13T21:01:48.813Z,25.77
2022-12-13T21:04:16.907Z,15.87
2022-12-13T21:06:50.355Z,19.90
2022-12-13T21:09:18.204Z,20.87
2022-12-13T21:11:48.422Z,20.63
2022-12-13T21:14:25.334Z,18.30
2022-12-13T21:17:01.419Z,17.60
2022-12-13T21:19:40.514Z,19.43
2022-12-13T21:22:08.139Z,17.70
2022-12-13T21:24:35.266Z,14.23
2022-12-13T21:27:08.302Z,20.17
2022-12-13T21:29:35.280Z,19.90
2022-12-13T21:32:02.338Z,18.00
2022-12-13T21:34:36.313Z,18.53
2022-12-13T21:37:03.301Z,18.73
2022-12-13T21:39:32.149Z,21.33
2022-12-13T21:42:05.274Z,20.03
2022-12-13T21:44:32.231Z,19.27
2022-12-13T21:47:14.565Z,20.03
2022-12-13T21:49:48.946Z,16.80
2022-12-13T21:52:16.106Z,17.37
2022-12-13T21:54:43.023Z,21.20
2022-12-13T21:57:36.302Z,21.33
2022-12-13T22:00:04.640Z,18.60
2022-12-13T22:02:31.697Z,21.60
2022-12-13T22:05:05.316Z,22.03
2022-12-13T22:07:33.818Z,18.67
2022-12-13T22:10:02.445Z,22.80
2022-12-13T22:12:54.327Z,19.83
2022-12-13T22:15:27.932Z,22.20
2022-12-13T22:18:01.282Z,20.67
2022-12-13T22:20:28.309Z,23.07
2022-12-13T22:22:55.311Z,19.60
2022-12-13T22:25:30.705Z,21.17
2022-12-13T22:27:57.758Z,22.37
2022-12-13T22:30:26.127Z,17.10
2022-12-13T22:33:00.338Z,20.97
2022-12-13T22:35:28.610Z,20.03
2022-12-13T22:38:00.098Z,28.90
2022-12-13T22:40:35.330Z,22.90
2022-12-13T22:43:02.359Z,19.77
2022-12-13T22:45:29.345Z,18.37
2022-12-13T22:48:03.310Z,20.17
2022-12-13T22:50:30.896Z,19.07
2022-12-13T22:52:58.286Z,22.47
2022-12-13T22:55:32.322Z,19.73
2022-12-13T22:57:59.306Z,18.60
2022-12-13T23:00:26.589Z,20.53
2022-12-13T23:03:01.432Z,21.13
2022-12-13T23:05:28.454Z,21.37
2022-12-13T23:07:55.394Z,22.07
2022-12-13T23:10:47.324Z,23.83
2022-12-13T23:13:21.377Z,19.83
2022-12-13T23:16:01.273Z,20.70
2022-12-13T23:18:28.606Z,20.67
2022-12-13T23:20:55.997Z,22.53
2022-12-13T23:23:30.345Z,22.90
2022-12-13T23:25:57.541Z,20.97
2022-12-13T23:28:24.646Z,19.50
2022-12-13T23:30:58.373Z,22.90
2022-12-13T23:33:25.330Z,19.23
2022-12-13T23:36:13.308Z,22.50
2022-12-13T23:38:41.252Z,20.57
2022-12-13T23:41:23.435Z,27.97
2022-12-13T23:43:51.545Z,21.93
2022-12-13T23:46:29.406Z,21.70
2022-12-13T23:48:58.169Z,20.70
2022-12-13T23:51:25.935Z,23.47
2022-12-13T23:54:00.331Z,24.13
2022-12-13T23:56:27.374Z,22.60
2022-12-13T23:58:54.339Z,22.23
